Perrys Mills, New York
Current Conditions -  °F | °C
As of 2:15 AM on Saturday 25 Oct 2014 (Local Time) from KFSO Reporting Station
Clear Clear  
Wind Chill: 35°   Ceiling: Unl
Heat Index: 38°   Visibility: 10mi
Dew Point: 37°   Wind: 5mph
Humidity: 95%   Direction: 160°SSE
Pressure: 29.77"   Gusts: NA
Location:  44.9684°N, 73.45°W
Report Text: KFSO 250615Z AUTO 16004KT 10SM CLR 04/03 A2977 RMK AO2 T00360028
Loading
Personal Weather Stations






























Interactive Weather Map
Tropical Storm Tracking
New forecast layout! Learn more

10-Day Weather Forecast

Advertisements
Track Severe Weather on mobile